sensor_id;sensor_type;location;lat;lon;timestamp;pressure;altitude;pressure_sealevel;temperature;humidity
59337;BME280;45115;52.002;4.686;2022-12-18T00:01:59;102837.00;;;-3.83;100.00
59337;BME280;45115;52.002;4.686;2022-12-18T00:04:26;102833.09;;;-3.78;100.00
59337;BME280;45115;52.002;4.686;2022-12-18T00:06:53;102827.44;;;-3.83;100.00
59337;BME280;45115;52.002;4.686;2022-12-18T00:09:20;102820.50;;;-3.82;100.00
59337;BME280;45115;52.002;4.686;2022-12-18T00:11:47;102821.56;;;-3.85;100.00
59337;BME280;45115;52.002;4.686;2022-12-18T00:14:14;102819.94;;;-3.86;100.00
59337;BME280;45115;52.002;4.686;2022-12-18T00:16:45;102819.81;;;-3.84;100.00
59337;BME280;45115;52.002;4.686;2022-12-18T00:19:12;102827.72;;;-3.86;100.00
59337;BME280;45115;52.002;4.686;2022-12-18T00:21:40;102814.31;;;-4.03;100.00
59337;BME280;45115;52.002;4.686;2022-12-18T00:24:08;102821.03;;;-4.00;100.00
59337;BME280;45115;52.002;4.686;2022-12-18T00:26:37;102827.72;;;-3.97;100.00
59337;BME280;45115;52.002;4.686;2022-12-18T00:29:06;102831.72;;;-4.05;100.00
59337;BME280;45115;52.002;4.686;2022-12-18T00:31:34;102822.44;;;-4.07;100.00
59337;BME280;45115;52.002;4.686;2022-12-18T00:34:03;102793.72;;;-4.16;100.00
59337;BME280;45115;52.002;4.686;2022-12-18T00:36:31;102818.66;;;-4.03;100.00
59337;BME280;45115;52.002;4.686;2022-12-18T00:39:00;102815.22;;;-4.04;100.00
59337;BME280;45115;52.002;4.686;2022-12-18T00:41:27;102816.56;;;-4.09;100.00
59337;BME280;45115;52.002;4.686;2022-12-18T00:44:14;102811.72;;;-4.14;100.00
59337;BME280;45115;52.002;4.686;2022-12-18T00:46:41;102817.03;;;-4.16;100.00
59337;BME280;45115;52.002;4.686;2022-12-18T00:49:12;102793.84;;;-4.29;100.00
59337;BME280;45115;52.002;4.686;2022-12-18T00:51:39;102797.34;;;-4.30;100.00
59337;BME280;45115;52.002;4.686;2022-12-18T00:54:06;102829.75;;;-4.13;100.00
59337;BME280;45115;52.002;4.686;2022-12-18T00:56:35;102823.41;;;-4.20;100.00
59337;BME280;45115;52.002;4.686;2022-12-18T00:59:02;102831.53;;;-4.13;100.00
59337;BME280;45115;52.002;4.686;2022-12-18T01:01:28;102833.66;;;-4.18;100.00
59337;BME280;45115;52.002;4.686;2022-12-18T01:03:59;102830.34;;;-4.20;100.00
59337;BME280;45115;52.002;4.686;2022-12-18T01:06:27;102827.16;;;-4.24;100.00
59337;BME280;45115;52.002;4.686;2022-12-18T01:08:54;102824.69;;;-4.25;100.00
59337;BME280;45115;52.002;4.686;2022-12-18T01:11:22;102827.28;;;-4.25;100.00
59337;BME280;45115;52.002;4.686;2022-12-18T01:13:49;102835.03;;;-4.25;100.00
59337;BME280;45115;52.002;4.686;2022-12-18T01:16:17;102824.56;;;-4.24;100.00
59337;BME280;45115;52.002;4.686;2022-12-18T01:18:44;102833.78;;;-4.31;100.00
59337;BME280;45115;52.002;4.686;2022-12-18T01:21:14;102838.47;;;-4.36;100.00
59337;BME280;45115;52.002;4.686;2022-12-18T01:23:46;102836.59;;;-4.34;100.00
59337;BME280;45115;52.002;4.686;2022-12-18T01:26:15;102835.53;;;-4.32;100.00
59337;BME280;45115;52.002;4.686;2022-12-18T01:28:43;102833.16;;;-4.35;100.00
59337;BME280;45115;52.002;4.686;2022-12-18T01:31:16;102830.34;;;-4.32;100.00
59337;BME280;45115;52.002;4.686;2022-12-18T01:33:43;102837.16;;;-4.31;100.00
59337;BME280;45115;52.002;4.686;2022-12-18T01:36:15;102837.66;;;-4.37;100.00
59337;BME280;45115;52.002;4.686;2022-12-18T01:38:42;102825.66;;;-4.49;100.00
59337;BME280;45115;52.002;4.686;2022-12-18T01:41:11;102847.75;;;-4.45;100.00
59337;BME280;45115;52.002;4.686;2022-12-18T01:43:50;102849.75;;;-4.49;100.00
59337;BME280;45115;52.002;4.686;2022-12-18T01:46:18;102852.72;;;-4.42;100.00
59337;BME280;45115;52.002;4.686;2022-12-18T01:48:47;102859.06;;;-4.46;100.00
59337;BME280;45115;52.002;4.686;2022-12-18T01:51:15;102851.66;;;-4.51;100.00
59337;BME280;45115;52.002;4.686;2022-12-18T01:53:43;102843.53;;;-4.58;100.00
59337;BME280;45115;52.002;4.686;2022-12-18T01:56:15;102844.47;;;-4.59;100.00
59337;BME280;45115;52.002;4.686;2022-12-18T01:58:48;102857.06;;;-4.54;100.00
59337;BME280;45115;52.002;4.686;2022-12-18T02:01:17;102863.06;;;-4.54;100.00
59337;BME280;45115;52.002;4.686;2022-12-18T02:03:45;102869.44;;;-4.46;100.00
59337;BME280;45115;52.002;4.686;2022-12-18T02:06:15;102866.47;;;-4.53;100.00
59337;BME280;45115;52.002;4.686;2022-12-18T02:08:51;102867.09;;;-4.61;100.00
59337;BME280;45115;52.002;4.686;2022-12-18T02:11:35;102841.88;;;-4.70;100.00
59337;BME280;45115;52.002;4.686;2022-12-18T02:14:14;102857.88;;;-4.65;100.00
59337;BME280;45115;52.002;4.686;2022-12-18T02:16:45;102865.19;;;-4.70;100.00
59337;BME280;45115;52.002;4.686;2022-12-18T02:22:09;102850.91;;;-4.76;100.00
59337;BME280;45115;52.002;4.686;2022-12-18T02:24:49;102854.06;;;-4.84;100.00
59337;BME280;45115;52.002;4.686;2022-12-18T02:27:21;102854.81;;;-4.82;100.00
59337;BME280;45115;52.002;4.686;2022-12-18T02:29:50;102838.88;;;-4.88;100.00
59337;BME280;45115;52.002;4.686;2022-12-18T02:32:20;102832.28;;;-4.93;100.00
59337;BME280;45115;52.002;4.686;2022-12-18T02:34:52;102855.13;;;-4.86;100.00
59337;BME280;45115;52.002;4.686;2022-12-18T02:37:23;102860.06;;;-4.95;100.00
59337;BME280;45115;52.002;4.686;2022-12-18T02:39:53;102856.63;;;-4.95;100.00
59337;BME280;45115;52.002;4.686;2022-12-18T02:42:23;102861.47;;;-4.90;100.00
59337;BME280;45115;52.002;4.686;2022-12-18T02:44:51;102840.16;;;-4.94;100.00
59337;BME280;45115;52.002;4.686;2022-12-18T02:47:27;102836.41;;;-4.90;100.00
59337;BME280;45115;52.002;4.686;2022-12-18T02:50:03;102836.41;;;-4.90;100.00
59337;BME280;45115;52.002;4.686;2022-12-18T02:52:39;102819.69;;;-4.97;100.00
59337;BME280;45115;52.002;4.686;2022-12-18T02:55:20;102812.72;;;-5.08;100.00
59337;BME280;45115;52.002;4.686;2022-12-18T02:58:03;102818.25;;;-5.01;100.00
59337;BME280;45115;52.002;4.686;2022-12-18T03:00:39;102811.56;;;-5.04;100.00
59337;BME280;45115;52.002;4.686;2022-12-18T03:03:11;102808.84;;;-5.02;100.00
59337;BME280;45115;52.002;4.686;2022-12-18T03:05:47;102783.97;;;-5.16;100.00
59337;BME280;45115;52.002;4.686;2022-12-18T03:08:20;102796.63;;;-5.00;100.00
59337;BME280;45115;52.002;4.686;2022-12-18T03:10:52;102791.31;;;-4.99;100.00
59337;BME280;45115;52.002;4.686;2022-12-18T03:13:30;102796.25;;;-5.07;100.00
59337;BME280;45115;52.002;4.686;2022-12-18T03:15:59;102790.38;;;-5.09;100.00
59337;BME280;45115;52.002;4.686;2022-12-18T03:18:30;102786.69;;;-5.18;100.00
59337;BME280;45115;52.002;4.686;2022-12-18T03:21:01;102779.81;;;-5.30;100.00
59337;BME280;45115;52.002;4.686;2022-12-18T03:23:34;102793.34;;;-5.27;100.00
59337;BME280;45115;52.002;4.686;2022-12-18T03:26:06;102774.06;;;-5.34;100.00
59337;BME280;45115;52.002;4.686;2022-12-18T03:28:40;102782.19;;;-5.27;100.00
59337;BME280;45115;52.002;4.686;2022-12-18T03:31:11;102780.66;;;-5.30;100.00
59337;BME280;45115;52.002;4.686;2022-12-18T03:33:41;102785.56;;;-5.38;100.00
59337;BME280;45115;52.002;4.686;2022-12-18T03:36:10;102787.34;;;-5.39;100.00
59337;BME280;45115;52.002;4.686;2022-12-18T03:38:38;102786.59;;;-5.41;100.00
59337;BME280;45115;52.002;4.686;2022-12-18T03:41:13;102783.03;;;-5.51;100.00
59337;BME280;45115;52.002;4.686;2022-12-18T03:44:12;102781.75;;;-5.57;100.00
59337;BME280;45115;52.002;4.686;2022-12-18T03:46:47;102766.34;;;-5.58;100.00
59337;BME280;45115;52.002;4.686;2022-12-18T03:49:25;102773.03;;;-5.56;100.00
59337;BME280;45115;52.002;4.686;2022-12-18T03:52:01;102746.19;;;-5.66;100.00
59337;BME280;45115;52.002;4.686;2022-12-18T03:54:30;102751.38;;;-5.66;100.00
59337;BME280;45115;52.002;4.686;2022-12-18T03:57:11;102766.34;;;-5.58;100.00
59337;BME280;45115;52.002;4.686;2022-12-18T03:59:43;102771.16;;;-5.54;100.00
59337;BME280;45115;52.002;4.686;2022-12-18T04:02:14;102757.75;;;-5.59;100.00
59337;BME280;45115;52.002;4.686;2022-12-18T04:04:43;102760.66;;;-5.64;100.00
59337;BME280;45115;52.002;4.686;2022-12-18T04:07:12;102740.50;;;-5.83;100.00
59337;BME280;45115;52.002;4.686;2022-12-18T04:09:41;102750.94;;;-5.84;100.00
59337;BME280;45115;52.002;4.686;2022-12-18T04:12:13;102758.31;;;-5.91;100.00
59337;BME280;45115;52.002;4.686;2022-12-18T04:14:41;102757.69;;;-5.95;100.00
59337;BME280;45115;52.002;4.686;2022-12-18T04:17:09;102740.97;;;-6.14;100.00
59337;BME280;45115;52.002;4.686;2022-12-18T04:19:36;102773.03;;;-6.16;100.00
59337;BME280;45115;52.002;4.686;2022-12-18T04:22:03;102753.53;;;-6.33;100.00
59337;BME280;45115;52.002;4.686;2022-12-18T04:24:36;102774.72;;;-6.41;100.00
59337;BME280;45115;52.002;4.686;2022-12-18T04:27:09;102771.81;;;-6.49;100.00
59337;BME280;45115;52.002;4.686;2022-12-18T04:29:44;102771.31;;;-6.55;100.00
59337;BME280;45115;52.002;4.686;2022-12-18T04:32:11;102768.97;;;-6.58;100.00
59337;BME280;45115;52.002;4.686;2022-12-18T04:34:40;102764.84;;;-6.60;100.00
59337;BME280;45115;52.002;4.686;2022-12-18T04:37:07;102772.06;;;-6.65;100.00
59337;BME280;45115;52.002;4.686;2022-12-18T04:39:34;102782.91;;;-6.73;100.00
59337;BME280;45115;52.002;4.686;2022-12-18T04:42:07;102782.16;;;-6.75;100.00
59337;BME280;45115;52.002;4.686;2022-12-18T04:44:33;102785.28;;;-6.83;100.00
59337;BME280;45115;52.002;4.686;2022-12-18T04:47:02;102782.69;;;-6.96;100.00
59337;BME280;45115;52.002;4.686;2022-12-18T04:49:28;102780.22;;;-7.11;100.00
59337;BME280;45115;52.002;4.686;2022-12-18T04:51:55;102787.13;;;-7.11;100.00
59337;BME280;45115;52.002;4.686;2022-12-18T04:54:22;102781.44;;;-7.16;100.00
59337;BME280;45115;52.002;4.686;2022-12-18T04:56:49;102790.09;;;-7.17;100.00
59337;BME280;45115;52.002;4.686;2022-12-18T04:59:16;102780.47;;;-7.28;100.00
59337;BME280;45115;52.002;4.686;2022-12-18T05:01:42;102773.16;;;-7.22;100.00
59337;BME280;45115;52.002;4.686;2022-12-18T05:04:10;102768.22;;;-7.12;100.00
59337;BME280;45115;52.002;4.686;2022-12-18T05:06:37;102764.94;;;-7.14;100.00
59337;BME280;45115;52.002;4.686;2022-12-18T05:09:04;102758.81;;;-7.26;100.00
59337;BME280;45115;52.002;4.686;2022-12-18T05:11:31;102763.03;;;-7.25;100.00
59337;BME280;45115;52.002;4.686;2022-12-18T05:13:57;102778.91;;;-7.31;100.00
59337;BME280;45115;52.002;4.686;2022-12-18T05:16:24;102784.47;;;-7.37;100.00
59337;BME280;45115;52.002;4.686;2022-12-18T05:18:51;102783.47;;;-7.35;100.00
59337;BME280;45115;52.002;4.686;2022-12-18T05:21:19;102786.47;;;-7.28;100.00
59337;BME280;45115;52.002;4.686;2022-12-18T05:23:46;102789.34;;;-7.20;100.00
59337;BME280;45115;52.002;4.686;2022-12-18T05:26:16;102776.09;;;-7.13;100.00
59337;BME280;45115;52.002;4.686;2022-12-18T05:28:43;102771.81;;;-7.14;100.00
59337;BME280;45115;52.002;4.686;2022-12-18T05:31:10;102766.69;;;-7.01;100.00
59337;BME280;45115;52.002;4.686;2022-12-18T05:33:37;102771.84;;;-7.01;100.00
59337;BME280;45115;52.002;4.686;2022-12-18T05:36:06;102777.84;;;-6.88;100.00
59337;BME280;45115;52.002;4.686;2022-12-18T05:38:36;102760.72;;;-6.89;100.00
59337;BME280;45115;52.002;4.686;2022-12-18T05:41:04;102758.22;;;-6.90;100.00
59337;BME280;45115;52.002;4.686;2022-12-18T05:43:31;102755.03;;;-6.94;100.00
59337;BME280;45115;52.002;4.686;2022-12-18T05:46:03;102750.47;;;-7.03;100.00
59337;BME280;45115;52.002;4.686;2022-12-18T05:48:30;102755.66;;;-7.03;100.00
59337;BME280;45115;52.002;4.686;2022-12-18T05:51:03;102752.75;;;-6.99;100.00
59337;BME280;45115;52.002;4.686;2022-12-18T05:53:31;102742.44;;;-6.99;100.00
59337;BME280;45115;52.002;4.686;2022-12-18T05:56:01;102747.81;;;-7.02;100.00
59337;BME280;45115;52.002;4.686;2022-12-18T05:58:28;102747.91;;;-7.03;100.00
59337;BME280;45115;52.002;4.686;2022-12-18T06:00:55;102754.72;;;-7.02;100.00
59337;BME280;45115;52.002;4.686;2022-12-18T06:03:22;102741.09;;;-7.17;100.00
59337;BME280;45115;52.002;4.686;2022-12-18T06:05:49;102756.34;;;-7.14;100.00
59337;BME280;45115;52.002;4.686;2022-12-18T06:08:16;102734.03;;;-7.41;100.00
59337;BME280;45115;52.002;4.686;2022-12-18T06:10:49;102746.31;;;-7.32;100.00
59337;BME280;45115;52.002;4.686;2022-12-18T06:13:18;102737.13;;;-7.36;100.00
59337;BME280;45115;52.002;4.686;2022-12-18T06:15:45;102735.81;;;-7.29;100.00
59337;BME280;45115;52.002;4.686;2022-12-18T06:18:11;102735.09;;;-7.31;100.00
59337;BME280;45115;52.002;4.686;2022-12-18T06:20:38;102727.75;;;-7.37;100.00
59337;BME280;45115;52.002;4.686;2022-12-18T06:23:07;102724.66;;;-7.29;100.00
59337;BME280;45115;52.002;4.686;2022-12-18T06:25:37;102717.97;;;-7.32;100.00
59337;BME280;45115;52.002;4.686;2022-12-18T06:28:04;102711.97;;;-7.32;100.00
59337;BME280;45115;52.002;4.686;2022-12-18T06:30:32;102713.22;;;-7.38;100.00
59337;BME280;45115;52.002;4.686;2022-12-18T06:32:59;102716.91;;;-7.42;100.00
59337;BME280;45115;52.002;4.686;2022-12-18T06:35:26;102722.41;;;-7.34;100.00
59337;BME280;45115;52.002;4.686;2022-12-18T06:37:52;102724.06;;;-7.33;100.00
59337;BME280;45115;52.002;4.686;2022-12-18T06:40:19;102716.31;;;-7.33;100.00
59337;BME280;45115;52.002;4.686;2022-12-18T06:42:46;102713.00;;;-7.35;100.00
59337;BME280;45115;52.002;4.686;2022-12-18T06:45:16;102707.22;;;-7.39;100.00
59337;BME280;45115;52.002;4.686;2022-12-18T06:47:44;102708.16;;;-7.40;100.00
59337;BME280;45115;52.002;4.686;2022-12-18T06:50:12;102704.72;;;-7.40;100.00
59337;BME280;45115;52.002;4.686;2022-12-18T06:52:39;102705.56;;;-7.40;100.00
59337;BME280;45115;52.002;4.686;2022-12-18T06:55:10;102693.63;;;-7.41;100.00
59337;BME280;45115;52.002;4.686;2022-12-18T06:57:37;102695.06;;;-7.37;100.00
59337;BME280;45115;52.002;4.686;2022-12-18T07:00:06;102682.38;;;-7.40;100.00
59337;BME280;45115;52.002;4.686;2022-12-18T07:02:33;102699.81;;;-7.30;100.00
59337;BME280;45115;52.002;4.686;2022-12-18T07:05:02;102689.16;;;-7.39;100.00
59337;BME280;45115;52.002;4.686;2022-12-18T07:07:28;102664.31;;;-7.53;100.00
59337;BME280;45115;52.002;4.686;2022-12-18T07:09:55;102677.53;;;-7.44;100.00
59337;BME280;45115;52.002;4.686;2022-12-18T07:12:22;102678.44;;;-7.45;100.00
59337;BME280;45115;52.002;4.686;2022-12-18T07:14:49;102672.66;;;-7.49;100.00
59337;BME280;45115;52.002;4.686;2022-12-18T07:17:15;102674.13;;;-7.45;100.00
59337;BME280;45115;52.002;4.686;2022-12-18T07:19:42;102670.16;;;-7.51;100.00
59337;BME280;45115;52.002;4.686;2022-12-18T07:22:10;102654.59;;;-7.49;100.00
59337;BME280;45115;52.002;4.686;2022-12-18T07:24:37;102643.78;;;-7.54;100.00
59337;BME280;45115;52.002;4.686;2022-12-18T07:27:04;102634.00;;;-7.49;100.00
59337;BME280;45115;52.002;4.686;2022-12-18T07:29:31;102633.38;;;-7.53;100.00
59337;BME280;45115;52.002;4.686;2022-12-18T07:31:57;102617.50;;;-7.47;100.00
59337;BME280;45115;52.002;4.686;2022-12-18T07:34:24;102621.09;;;-7.36;100.00
59337;BME280;45115;52.002;4.686;2022-12-18T07:36:53;102619.97;;;-7.32;100.00
59337;BME280;45115;52.002;4.686;2022-12-18T07:39:21;102606.22;;;-7.32;100.00
59337;BME280;45115;52.002;4.686;2022-12-18T07:41:48;102604.59;;;-7.34;100.00
59337;BME280;45115;52.002;4.686;2022-12-18T07:44:34;102604.50;;;-7.32;100.00
59337;BME280;45115;52.002;4.686;2022-12-18T07:47:02;102621.94;;;-7.36;100.00
59337;BME280;45115;52.002;4.686;2022-12-18T07:49:29;102604.41;;;-7.43;100.00
59337;BME280;45115;52.002;4.686;2022-12-18T07:51:56;102628.63;;;-7.33;100.00
59337;BME280;45115;52.002;4.686;2022-12-18T07:54:25;102631.94;;;-7.31;100.00
59337;BME280;45115;52.002;4.686;2022-12-18T07:56:52;102627.59;;;-7.30;100.00
59337;BME280;45115;52.002;4.686;2022-12-18T07:59:19;102623.16;;;-7.28;100.00
59337;BME280;45115;52.002;4.686;2022-12-18T08:01:45;102627.88;;;-7.22;100.00
59337;BME280;45115;52.002;4.686;2022-12-18T08:04:12;102627.78;;;-7.21;100.00
59337;BME280;45115;52.002;4.686;2022-12-18T08:06:39;102638.44;;;-7.12;100.00
59337;BME280;45115;52.002;4.686;2022-12-18T08:09:06;102629.13;;;-7.02;100.00
59337;BME280;45115;52.002;4.686;2022-12-18T08:11:35;102617.66;;;-6.98;100.00
59337;BME280;45115;52.002;4.686;2022-12-18T08:14:02;102619.91;;;-6.93;100.00
59337;BME280;45115;52.002;4.686;2022-12-18T08:16:29;102616.69;;;-6.84;100.00
59337;BME280;45115;52.002;4.686;2022-12-18T08:18:56;102613.88;;;-6.81;100.00
59337;BME280;45115;52.002;4.686;2022-12-18T08:21:24;102612.41;;;-6.72;100.00
59337;BME280;45115;52.002;4.686;2022-12-18T08:23:53;102606.84;;;-6.65;100.00
59337;BME280;45115;52.002;4.686;2022-12-18T08:26:21;102608.16;;;-6.60;100.00
59337;BME280;45115;52.002;4.686;2022-12-18T08:28:50;102614.16;;;-6.59;100.00
59337;BME280;45115;52.002;4.686;2022-12-18T08:31:18;102600.91;;;-6.55;100.00
59337;BME280;45115;52.002;4.686;2022-12-18T08:33:45;102599.75;;;-6.50;100.00
59337;BME280;45115;52.002;4.686;2022-12-18T08:36:12;102596.22;;;-6.49;100.00
59337;BME280;45115;52.002;4.686;2022-12-18T08:38:38;102608.84;;;-6.45;100.00
59337;BME280;45115;52.002;4.686;2022-12-18T08:41:06;102610.97;;;-6.38;100.00
59337;BME280;45115;52.002;4.686;2022-12-18T08:43:34;102613.31;;;-6.35;100.00
59337;BME280;45115;52.002;4.686;2022-12-18T08:46:21;102633.44;;;-6.28;100.00
59337;BME280;45115;52.002;4.686;2022-12-18T08:48:50;102640.13;;;-6.25;100.00
59337;BME280;45115;52.002;4.686;2022-12-18T08:51:17;102641.47;;;-6.19;100.00
59337;BME280;45115;52.002;4.686;2022-12-18T08:53:44;102649.09;;;-6.18;100.00
59337;BME280;45115;52.002;4.686;2022-12-18T08:56:11;102655.81;;;-6.15;100.00
59337;BME280;45115;52.002;4.686;2022-12-18T08:58:39;102652.19;;;-6.12;100.00
59337;BME280;45115;52.002;4.686;2022-12-18T09:01:07;102654.22;;;-6.05;100.00
59337;BME280;45115;52.002;4.686;2022-12-18T09:03:36;102654.66;;;-6.00;100.00
59337;BME280;45115;52.002;4.686;2022-12-18T09:06:04;102650.69;;;-5.92;100.00
59337;BME280;45115;52.002;4.686;2022-12-18T09:08:37;102645.06;;;-5.86;100.00
59337;BME280;45115;52.002;4.686;2022-12-18T09:11:04;102641.91;;;-5.78;100.00
59337;BME280;45115;52.002;4.686;2022-12-18T09:13:30;102634.88;;;-5.76;100.00
59337;BME280;45115;52.002;4.686;2022-12-18T09:15:57;102637.34;;;-5.75;100.00
59337;BME280;45115;52.002;4.686;2022-12-18T09:18:24;102639.50;;;-5.68;100.00
59337;BME280;45115;52.002;4.686;2022-12-18T09:20:52;102631.59;;;-5.67;100.00
59337;BME280;45115;52.002;4.686;2022-12-18T09:23:20;102617.50;;;-5.63;100.00
59337;BME280;45115;52.002;4.686;2022-12-18T09:25:46;102592.13;;;-5.69;100.00
59337;BME280;45115;52.002;4.686;2022-12-18T09:28:17;102600.72;;;-5.57;100.00
59337;BME280;45115;52.002;4.686;2022-12-18T09:30:46;102596.81;;;-5.63;100.00
59337;BME280;45115;52.002;4.686;2022-12-18T09:33:14;102576.13;;;-5.63;100.00
59337;BME280;45115;52.002;4.686;2022-12-18T09:35:42;102594.84;;;-5.48;100.00
59337;BME280;45115;52.002;4.686;2022-12-18T09:38:13;102602.72;;;-5.38;100.00
59337;BME280;45115;52.002;4.686;2022-12-18T09:40:42;102613.19;;;-5.28;100.00
59337;BME280;45115;52.002;4.686;2022-12-18T09:43:14;102609.06;;;-5.19;100.00
59337;BME280;45115;52.002;4.686;2022-12-18T09:45:46;102613.78;;;-5.13;100.00
59337;BME280;45115;52.002;4.686;2022-12-18T09:48:17;102608.34;;;-5.10;100.00
59337;BME280;45115;52.002;4.686;2022-12-18T09:50:45;102615.19;;;-5.09;100.00
59337;BME280;45115;52.002;4.686;2022-12-18T09:53:16;102617.06;;;-4.99;100.00
59337;BME280;45115;52.002;4.686;2022-12-18T09:55:46;102618.47;;;-4.95;100.00
59337;BME280;45115;52.002;4.686;2022-12-18T09:58:18;102606.47;;;-4.96;100.00
59337;BME280;45115;52.002;4.686;2022-12-18T10:00:46;102612.78;;;-4.77;100.00
59337;BME280;45115;52.002;4.686;2022-12-18T10:03:14;102607.38;;;-4.74;100.00
59337;BME280;45115;52.002;4.686;2022-12-18T10:05:49;102591.47;;;-4.70;100.00
59337;BME280;45115;52.002;4.686;2022-12-18T10:08:24;102601.59;;;-4.67;100.00
59337;BME280;45115;52.002;4.686;2022-12-18T10:10:57;102595.22;;;-4.62;100.00
59337;BME280;45115;52.002;4.686;2022-12-18T10:13:31;102583.09;;;-4.62;100.00
59337;BME280;45115;52.002;4.686;2022-12-18T10:16:06;102577.09;;;-4.62;100.00
59337;BME280;45115;52.002;4.686;2022-12-18T10:21:30;102565.97;;;-4.42;100.00
59337;BME280;45115;52.002;4.686;2022-12-18T10:24:08;102552.84;;;-4.40;100.00
59337;BME280;45115;52.002;4.686;2022-12-18T10:26:41;102546.13;;;-4.31;100.00
59337;BME280;45115;52.002;4.686;2022-12-18T10:29:10;102561.06;;;-4.23;100.00
59337;BME280;45115;52.002;4.686;2022-12-18T10:31:38;102563.38;;;-4.20;100.00
59337;BME280;45115;52.002;4.686;2022-12-18T10:34:09;102560.91;;;-4.22;100.00
59337;BME280;45115;52.002;4.686;2022-12-18T10:36:35;102549.47;;;-4.19;100.00
59337;BME280;45115;52.002;4.686;2022-12-18T10:39:20;102534.34;;;-4.14;100.00
59337;BME280;45115;52.002;4.686;2022-12-18T10:41:51;102541.88;;;-4.11;100.00
59337;BME280;45115;52.002;4.686;2022-12-18T10:44:19;102536.19;;;-4.05;100.00
59337;BME280;45115;52.002;4.686;2022-12-18T10:46:49;102545.91;;;-3.97;100.00
59337;BME280;45115;52.002;4.686;2022-12-18T10:49:22;102536.00;;;-3.92;100.00
59337;BME280;45115;52.002;4.686;2022-12-18T10:51:51;102551.34;;;-3.79;100.00
59337;BME280;45115;52.002;4.686;2022-12-18T10:54:21;102546.03;;;-3.77;100.00
59337;BME280;45115;52.002;4.686;2022-12-18T10:56:49;102544.69;;;-3.71;100.00
59337;BME280;45115;52.002;4.686;2022-12-18T10:59:17;102550.06;;;-3.63;100.00
59337;BME280;45115;52.002;4.686;2022-12-18T11:01:47;102529.97;;;-3.61;100.00
59337;BME280;45115;52.002;4.686;2022-12-18T11:04:17;102538.63;;;-3.51;100.00
59337;BME280;45115;52.002;4.686;2022-12-18T11:06:57;102537.38;;;-3.56;100.00
59337;BME280;45115;52.002;4.686;2022-12-18T11:09:29;102531.25;;;-3.55;100.00
59337;BME280;45115;52.002;4.686;2022-12-18T11:11:58;102532.63;;;-3.51;100.00
59337;BME280;45115;52.002;4.686;2022-12-18T11:14:29;102513.50;;;-3.60;100.00
59337;BME280;45115;52.002;4.686;2022-12-18T11:16:58;102531.41;;;-3.47;100.00
59337;BME280;45115;52.002;4.686;2022-12-18T11:19:33;102533.19;;;-3.38;100.00
59337;BME280;45115;52.002;4.686;2022-12-18T11:22:01;102526.00;;;-3.34;100.00
59337;BME280;45115;52.002;4.686;2022-12-18T11:24:31;102526.13;;;-3.26;100.00
59337;BME280;45115;52.002;4.686;2022-12-18T11:27:02;102507.41;;;-3.29;100.00
59337;BME280;45115;52.002;4.686;2022-12-18T11:29:33;102505.50;;;-3.27;100.00
59337;BME280;45115;52.002;4.686;2022-12-18T11:32:27;102512.25;;;-3.15;100.00
59337;BME280;45115;52.002;4.686;2022-12-18T11:35:03;102507.31;;;-3.18;100.00
59337;BME280;45115;52.002;4.686;2022-12-18T11:37:35;102506.63;;;-3.10;100.00
59337;BME280;45115;52.002;4.686;2022-12-18T11:40:09;102493.09;;;-3.14;100.00
59337;BME280;45115;52.002;4.686;2022-12-18T11:42:41;102502.81;;;-3.06;100.00
59337;BME280;45115;52.002;4.686;2022-12-18T11:45:28;102492.44;;;-2.96;100.00
59337;BME280;45115;52.002;4.686;2022-12-18T11:48:01;102482.47;;;-2.91;100.00
59337;BME280;45115;52.002;4.686;2022-12-18T11:50:38;102465.78;;;-2.88;100.00
59337;BME280;45115;52.002;4.686;2022-12-18T11:53:11;102467.81;;;-2.82;100.00
59337;BME280;45115;52.002;4.686;2022-12-18T11:55:47;102461.94;;;-2.74;100.00
59337;BME280;45115;52.002;4.686;2022-12-18T12:04:26;102439.00;;;-2.79;100.00
59337;BME280;45115;52.002;4.686;2022-12-18T12:07:06;102428.03;;;-2.73;100.00
59337;BME280;45115;52.002;4.686;2022-12-18T12:09:43;102426.81;;;-2.69;100.00
59337;BME280;45115;52.002;4.686;2022-12-18T12:12:25;102420.94;;;-2.71;100.00
59337;BME280;45115;52.002;4.686;2022-12-18T12:15:00;102409.84;;;-2.73;100.00
59337;BME280;45115;52.002;4.686;2022-12-18T12:17:36;102407.97;;;-2.71;100.00
59337;BME280;45115;52.002;4.686;2022-12-18T12:20:10;102405.06;;;-2.68;100.00
59337;BME280;45115;52.002;4.686;2022-12-18T12:22:45;102413.69;;;-2.67;100.00
59337;BME280;45115;52.002;4.686;2022-12-18T12:25:25;102414.63;;;-2.58;100.00
59337;BME280;45115;52.002;4.686;2022-12-18T12:28:07;102398.91;;;-2.67;100.00
59337;BME280;45115;52.002;4.686;2022-12-18T12:30:45;102401.06;;;-2.52;100.00
59337;BME280;45115;52.002;4.686;2022-12-18T12:33:23;102399.00;;;-2.48;100.00
59337;BME280;45115;52.002;4.686;2022-12-18T12:36:02;102391.78;;;-2.55;100.00
59337;BME280;45115;52.002;4.686;2022-12-18T12:38:34;102394.38;;;-2.55;100.00
59337;BME280;45115;52.002;4.686;2022-12-18T12:41:04;102400.41;;;-2.54;100.00
59337;BME280;45115;52.002;4.686;2022-12-18T12:43:37;102389.16;;;-2.55;100.00
59337;BME280;45115;52.002;4.686;2022-12-18T12:46:06;102398.59;;;-2.44;100.00
59337;BME280;45115;52.002;4.686;2022-12-18T12:48:38;102392.84;;;-2.47;100.00
59337;BME280;45115;52.002;4.686;2022-12-18T12:51:12;102388.19;;;-2.44;100.00
59337;BME280;45115;52.002;4.686;2022-12-18T12:53:41;102383.78;;;-2.43;100.00
59337;BME280;45115;52.002;4.686;2022-12-18T12:56:10;102390.25;;;-2.47;100.00
59337;BME280;45115;52.002;4.686;2022-12-18T12:58:46;102379.69;;;-2.46;100.00
59337;BME280;45115;52.002;4.686;2022-12-18T13:01:25;102385.88;;;-2.47;100.00
59337;BME280;45115;52.002;4.686;2022-12-18T13:04:01;102392.97;;;-2.39;100.00
59337;BME280;45115;52.002;4.686;2022-12-18T13:06:39;102383.09;;;-2.35;100.00
59337;BME280;45115;52.002;4.686;2022-12-18T13:09:10;102352.91;;;-2.46;100.00